sensor_id;sensor_type;location;lat;lon;timestamp;temperature;humidity
1005;DHT22;491;53.480;10.174;2022-11-24T00:00:52;4.10;99.90
1005;DHT22;491;53.480;10.174;2022-11-24T00:03:18;4.20;99.90
1005;DHT22;491;53.480;10.174;2022-11-24T00:05:44;4.10;99.90
1005;DHT22;491;53.480;10.174;2022-11-24T00:08:10;4.10;99.90
1005;DHT22;491;53.480;10.174;2022-11-24T00:10:36;4.20;99.90
1005;DHT22;491;53.480;10.174;2022-11-24T00:13:01;4.10;99.90
1005;DHT22;491;53.480;10.174;2022-11-24T00:15:26;4.10;99.90
1005;DHT22;491;53.480;10.174;2022-11-24T00:17:52;4.10;99.90
1005;DHT22;491;53.480;10.174;2022-11-24T00:20:18;4.10;99.90
1005;DHT22;491;53.480;10.174;2022-11-24T00:22:43;4.10;99.90
1005;DHT22;491;53.480;10.174;2022-11-24T00:25:08;4.10;99.90
1005;DHT22;491;53.480;10.174;2022-11-24T00:27:34;4.10;99.90
1005;DHT22;491;53.480;10.174;2022-11-24T00:29:59;4.10;99.90
1005;DHT22;491;53.480;10.174;2022-11-24T00:32:29;4.10;99.90
1005;DHT22;491;53.480;10.174;2022-11-24T00:34:54;4.10;99.90
1005;DHT22;491;53.480;10.174;2022-11-24T00:37:20;4.10;99.90
1005;DHT22;491;53.480;10.174;2022-11-24T00:39:45;4.10;99.90
1005;DHT22;491;53.480;10.174;2022-11-24T00:42:10;4.10;99.90
1005;DHT22;491;53.480;10.174;2022-11-24T00:44:36;4.20;99.90
1005;DHT22;491;53.480;10.174;2022-11-24T00:47:01;4.10;99.90
1005;DHT22;491;53.480;10.174;2022-11-24T00:49:27;4.10;99.90
1005;DHT22;491;53.480;10.174;2022-11-24T00:51:52;4.10;99.90
1005;DHT22;491;53.480;10.174;2022-11-24T00:54:18;4.10;99.90
1005;DHT22;491;53.480;10.174;2022-11-24T00:56:43;4.00;99.90
1005;DHT22;491;53.480;10.174;2022-11-24T00:59:11;4.00;99.90
1005;DHT22;491;53.480;10.174;2022-11-24T01:01:37;4.00;99.90
1005;DHT22;491;53.480;10.174;2022-11-24T01:04:03;4.00;99.90
1005;DHT22;491;53.480;10.174;2022-11-24T01:06:30;4.10;99.90
1005;DHT22;491;53.480;10.174;2022-11-24T01:08:57;4.00;99.90
1005;DHT22;491;53.480;10.174;2022-11-24T01:11:34;4.00;99.90
1005;DHT22;491;53.480;10.174;2022-11-24T01:14:19;4.10;99.90
1005;DHT22;491;53.480;10.174;2022-11-24T01:16:47;4.10;99.90
1005;DHT22;491;53.480;10.174;2022-11-24T01:19:13;4.00;99.90
1005;DHT22;491;53.480;10.174;2022-11-24T01:21:39;4.10;99.90
1005;DHT22;491;53.480;10.174;2022-11-24T01:24:04;4.10;99.90
1005;DHT22;491;53.480;10.174;2022-11-24T01:26:30;4.10;99.90
1005;DHT22;491;53.480;10.174;2022-11-24T01:28:56;4.10;99.90
1005;DHT22;491;53.480;10.174;2022-11-24T01:31:25;4.10;99.90
1005;DHT22;491;53.480;10.174;2022-11-24T01:33:51;4.10;99.90
1005;DHT22;491;53.480;10.174;2022-11-24T01:36:17;4.10;99.90
1005;DHT22;491;53.480;10.174;2022-11-24T01:38:43;4.10;99.90
1005;DHT22;491;53.480;10.174;2022-11-24T01:41:20;4.10;99.90
1005;DHT22;491;53.480;10.174;2022-11-24T01:43:46;4.10;99.90
1005;DHT22;491;53.480;10.174;2022-11-24T01:46:41;4.20;99.90
1005;DHT22;491;53.480;10.174;2022-11-24T01:51:35;4.20;99.90
1005;DHT22;491;53.480;10.174;2022-11-24T01:54:15;4.20;99.90
1005;DHT22;491;53.480;10.174;2022-11-24T01:56:44;4.20;99.90
1005;DHT22;491;53.480;10.174;2022-11-24T01:59:13;4.20;99.90
1005;DHT22;491;53.480;10.174;2022-11-24T02:01:39;4.20;99.90
1005;DHT22;491;53.480;10.174;2022-11-24T02:04:08;4.40;99.90
1005;DHT22;491;53.480;10.174;2022-11-24T02:06:38;4.50;99.90
1005;DHT22;491;53.480;10.174;2022-11-24T02:09:47;4.40;99.90
1005;DHT22;491;53.480;10.174;2022-11-24T02:12:06;4.40;99.90
1005;DHT22;491;53.480;10.174;2022-11-24T02:14:33;4.40;99.90
1005;DHT22;491;53.480;10.174;2022-11-24T02:16:59;4.40;99.90
1005;DHT22;491;53.480;10.174;2022-11-24T02:22:27;4.50;99.90
1005;DHT22;491;53.480;10.174;2022-11-24T02:27:44;4.50;99.90
1005;DHT22;491;53.480;10.174;2022-11-24T02:30:10;4.50;99.90
1005;DHT22;491;53.480;10.174;2022-11-24T02:32:41;4.50;99.90
1005;DHT22;491;53.480;10.174;2022-11-24T02:35:08;4.60;99.90
1005;DHT22;491;53.480;10.174;2022-11-24T02:37:33;4.60;99.90
1005;DHT22;491;53.480;10.174;2022-11-24T02:39:59;4.60;99.90
1005;DHT22;491;53.480;10.174;2022-11-24T02:42:26;4.60;99.90
1005;DHT22;491;53.480;10.174;2022-11-24T02:44:55;4.60;99.90
1005;DHT22;491;53.480;10.174;2022-11-24T02:47:22;4.50;99.90
1005;DHT22;491;53.480;10.174;2022-11-24T02:49:48;4.50;99.90
1005;DHT22;491;53.480;10.174;2022-11-24T02:52:13;4.40;99.90
1005;DHT22;491;53.480;10.174;2022-11-24T02:54:41;4.40;99.90
1005;DHT22;491;53.480;10.174;2022-11-24T02:57:06;4.30;99.90
1005;DHT22;491;53.480;10.174;2022-11-24T02:59:32;4.30;99.90
1005;DHT22;491;53.480;10.174;2022-11-24T03:02:00;4.20;99.90
1005;DHT22;491;53.480;10.174;2022-11-24T03:04:26;4.20;99.90
1005;DHT22;491;53.480;10.174;2022-11-24T03:06:51;4.20;99.90
1005;DHT22;491;53.480;10.174;2022-11-24T03:09:17;4.10;99.90
1005;DHT22;491;53.480;10.174;2022-11-24T03:11:42;4.10;99.90
1005;DHT22;491;53.480;10.174;2022-11-24T03:14:08;4.10;99.90
1005;DHT22;491;53.480;10.174;2022-11-24T03:16:37;4.10;99.90
1005;DHT22;491;53.480;10.174;2022-11-24T03:19:03;4.10;99.90
1005;DHT22;491;53.480;10.174;2022-11-24T03:21:28;4.00;99.90
1005;DHT22;491;53.480;10.174;2022-11-24T03:23:54;4.00;99.90
1005;DHT22;491;53.480;10.174;2022-11-24T03:26:21;4.00;99.90
1005;DHT22;491;53.480;10.174;2022-11-24T03:28:47;4.00;99.90
1005;DHT22;491;53.480;10.174;2022-11-24T03:31:13;3.90;99.90
1005;DHT22;491;53.480;10.174;2022-11-24T03:33:39;3.90;99.90
1005;DHT22;491;53.480;10.174;2022-11-24T03:36:05;3.90;99.90
1005;DHT22;491;53.480;10.174;2022-11-24T03:38:31;3.90;99.90
1005;DHT22;491;53.480;10.174;2022-11-24T03:40:57;3.80;99.90
1005;DHT22;491;53.480;10.174;2022-11-24T03:43:22;3.90;99.90
1005;DHT22;491;53.480;10.174;2022-11-24T03:45:48;3.90;99.90
1005;DHT22;491;53.480;10.174;2022-11-24T03:48:17;4.00;99.90
1005;DHT22;491;53.480;10.174;2022-11-24T03:50:52;4.00;99.90
1005;DHT22;491;53.480;10.174;2022-11-24T03:53:18;4.00;99.90
1005;DHT22;491;53.480;10.174;2022-11-24T03:55:44;4.00;99.90
1005;DHT22;491;53.480;10.174;2022-11-24T03:58:09;4.10;99.90
1005;DHT22;491;53.480;10.174;2022-11-24T04:00:35;4.10;99.90
1005;DHT22;491;53.480;10.174;2022-11-24T04:03:00;4.10;99.90
1005;DHT22;491;53.480;10.174;2022-11-24T04:05:28;4.10;99.90
1005;DHT22;491;53.480;10.174;2022-11-24T04:07:55;4.20;99.90
1005;DHT22;491;53.480;10.174;2022-11-24T04:10:22;4.20;99.90
1005;DHT22;491;53.480;10.174;2022-11-24T04:12:47;4.20;99.90
1005;DHT22;491;53.480;10.174;2022-11-24T04:15:19;4.20;99.90
1005;DHT22;491;53.480;10.174;2022-11-24T04:17:46;4.20;99.90
1005;DHT22;491;53.480;10.174;2022-11-24T04:20:12;4.20;99.90
1005;DHT22;491;53.480;10.174;2022-11-24T04:22:38;4.30;99.90
1005;DHT22;491;53.480;10.174;2022-11-24T04:25:08;4.30;99.90
1005;DHT22;491;53.480;10.174;2022-11-24T04:27:35;4.30;99.90
1005;DHT22;491;53.480;10.174;2022-11-24T04:30:01;4.30;99.90
1005;DHT22;491;53.480;10.174;2022-11-24T04:32:26;4.40;99.90
1005;DHT22;491;53.480;10.174;2022-11-24T04:34:52;4.30;99.90
1005;DHT22;491;53.480;10.174;2022-11-24T04:37:18;4.40;99.90
1005;DHT22;491;53.480;10.174;2022-11-24T04:39:43;4.40;99.90
1005;DHT22;491;53.480;10.174;2022-11-24T04:42:10;4.50;99.90
1005;DHT22;491;53.480;10.174;2022-11-24T04:44:36;4.50;99.90
1005;DHT22;491;53.480;10.174;2022-11-24T04:47:02;4.50;99.90
1005;DHT22;491;53.480;10.174;2022-11-24T04:49:27;4.50;99.90
1005;DHT22;491;53.480;10.174;2022-11-24T04:51:53;4.50;99.90
1005;DHT22;491;53.480;10.174;2022-11-24T04:54:18;4.60;99.90
1005;DHT22;491;53.480;10.174;2022-11-24T04:56:44;4.60;99.90
1005;DHT22;491;53.480;10.174;2022-11-24T04:59:15;4.60;99.90
1005;DHT22;491;53.480;10.174;2022-11-24T05:01:42;4.60;99.90
1005;DHT22;491;53.480;10.174;2022-11-24T05:04:13;4.60;99.90
1005;DHT22;491;53.480;10.174;2022-11-24T05:06:39;4.70;99.90
1005;DHT22;491;53.480;10.174;2022-11-24T05:09:05;4.70;99.90
1005;DHT22;491;53.480;10.174;2022-11-24T05:11:34;4.70;99.90
1005;DHT22;491;53.480;10.174;2022-11-24T05:14:00;4.80;99.90
1005;DHT22;491;53.480;10.174;2022-11-24T05:16:26;4.70;99.90
1005;DHT22;491;53.480;10.174;2022-11-24T05:18:51;4.70;99.90
1005;DHT22;491;53.480;10.174;2022-11-24T05:21:17;4.70;99.90
1005;DHT22;491;53.480;10.174;2022-11-24T05:23:43;4.80;99.90
1005;DHT22;491;53.480;10.174;2022-11-24T05:26:08;4.70;99.90
1005;DHT22;491;53.480;10.174;2022-11-24T05:28:34;4.80;99.90
1005;DHT22;491;53.480;10.174;2022-11-24T05:31:01;4.80;99.90
1005;DHT22;491;53.480;10.174;2022-11-24T05:33:28;4.80;99.90
1005;DHT22;491;53.480;10.174;2022-11-24T05:35:57;4.80;99.90
1005;DHT22;491;53.480;10.174;2022-11-24T05:38:24;4.80;99.90
1005;DHT22;491;53.480;10.174;2022-11-24T05:40:50;4.90;99.90
1005;DHT22;491;53.480;10.174;2022-11-24T05:43:16;4.80;99.90
1005;DHT22;491;53.480;10.174;2022-11-24T05:45:42;4.80;99.90
1005;DHT22;491;53.480;10.174;2022-11-24T05:48:14;4.80;99.90
1005;DHT22;491;53.480;10.174;2022-11-24T05:50:40;4.90;99.90
1005;DHT22;491;53.480;10.174;2022-11-24T05:53:09;4.90;99.90
1005;DHT22;491;53.480;10.174;2022-11-24T05:55:34;4.90;99.90
1005;DHT22;491;53.480;10.174;2022-11-24T05:58:06;5.00;99.90
1005;DHT22;491;53.480;10.174;2022-11-24T06:00:32;5.00;99.90
1005;DHT22;491;53.480;10.174;2022-11-24T06:02:59;5.00;99.90
1005;DHT22;491;53.480;10.174;2022-11-24T06:05:26;5.00;99.90
1005;DHT22;491;53.480;10.174;2022-11-24T06:07:53;5.00;99.90
1005;DHT22;491;53.480;10.174;2022-11-24T06:10:20;5.00;99.90
1005;DHT22;491;53.480;10.174;2022-11-24T06:12:46;5.10;99.90
1005;DHT22;491;53.480;10.174;2022-11-24T06:15:12;5.00;99.90
1005;DHT22;491;53.480;10.174;2022-11-24T06:17:38;5.10;99.90
1005;DHT22;491;53.480;10.174;2022-11-24T06:20:06;5.10;99.90
1005;DHT22;491;53.480;10.174;2022-11-24T06:22:32;5.10;99.90
1005;DHT22;491;53.480;10.174;2022-11-24T06:24:58;5.00;99.90
1005;DHT22;491;53.480;10.174;2022-11-24T06:27:23;5.10;99.90
1005;DHT22;491;53.480;10.174;2022-11-24T06:29:49;5.00;99.90
1005;DHT22;491;53.480;10.174;2022-11-24T06:32:15;5.00;99.90
1005;DHT22;491;53.480;10.174;2022-11-24T06:34:40;5.10;99.90
1005;DHT22;491;53.480;10.174;2022-11-24T06:37:09;5.10;99.90
1005;DHT22;491;53.480;10.174;2022-11-24T06:39:34;5.10;99.90
1005;DHT22;491;53.480;10.174;2022-11-24T06:42:00;5.10;99.90
1005;DHT22;491;53.480;10.174;2022-11-24T06:44:26;5.00;99.90
1005;DHT22;491;53.480;10.174;2022-11-24T06:46:54;5.10;99.90
1005;DHT22;491;53.480;10.174;2022-11-24T06:49:19;5.10;99.90
1005;DHT22;491;53.480;10.174;2022-11-24T06:51:45;5.10;99.90
1005;DHT22;491;53.480;10.174;2022-11-24T06:54:15;5.10;99.90
1005;DHT22;491;53.480;10.174;2022-11-24T06:56:41;5.10;99.90
1005;DHT22;491;53.480;10.174;2022-11-24T06:59:11;5.10;99.90
1005;DHT22;491;53.480;10.174;2022-11-24T07:01:38;5.00;99.90
1005;DHT22;491;53.480;10.174;2022-11-24T07:04:04;5.00;99.90
1005;DHT22;491;53.480;10.174;2022-11-24T07:06:33;5.00;99.90
1005;DHT22;491;53.480;10.174;2022-11-24T07:08:58;5.00;99.90
1005;DHT22;491;53.480;10.174;2022-11-24T07:11:24;5.00;99.90
1005;DHT22;491;53.480;10.174;2022-11-24T07:13:50;5.00;99.90
1005;DHT22;491;53.480;10.174;2022-11-24T07:16:18;5.00;99.90
1005;DHT22;491;53.480;10.174;2022-11-24T07:18:44;5.10;99.90
1005;DHT22;491;53.480;10.174;2022-11-24T07:21:11;5.10;99.90
1005;DHT22;491;53.480;10.174;2022-11-24T07:23:36;5.10;99.90
1005;DHT22;491;53.480;10.174;2022-11-24T07:26:06;5.00;99.90
1005;DHT22;491;53.480;10.174;2022-11-24T07:28:33;5.00;99.90
1005;DHT22;491;53.480;10.174;2022-11-24T07:31:06;5.00;99.90
1005;DHT22;491;53.480;10.174;2022-11-24T07:33:33;5.00;99.90
1005;DHT22;491;53.480;10.174;2022-11-24T07:35:59;5.00;99.90
1005;DHT22;491;53.480;10.174;2022-11-24T07:38:24;5.00;99.90
1005;DHT22;491;53.480;10.174;2022-11-24T07:40:50;5.00;99.90
1005;DHT22;491;53.480;10.174;2022-11-24T07:43:15;5.00;99.90
1005;DHT22;491;53.480;10.174;2022-11-24T07:45:49;5.00;99.90
1005;DHT22;491;53.480;10.174;2022-11-24T07:48:15;5.00;99.90
1005;DHT22;491;53.480;10.174;2022-11-24T07:50:41;5.10;99.90
1005;DHT22;491;53.480;10.174;2022-11-24T07:53:06;5.10;99.90
1005;DHT22;491;53.480;10.174;2022-11-24T07:55:31;5.20;99.90
1005;DHT22;491;53.480;10.174;2022-11-24T07:58:00;5.20;99.90
1005;DHT22;491;53.480;10.174;2022-11-24T08:00:26;5.40;99.90
1005;DHT22;491;53.480;10.174;2022-11-24T08:02:52;5.50;99.90
1005;DHT22;491;53.480;10.174;2022-11-24T08:05:18;5.60;99.90
1005;DHT22;491;53.480;10.174;2022-11-24T08:07:43;5.70;99.90
1005;DHT22;491;53.480;10.174;2022-11-24T08:10:09;5.80;99.90
1005;DHT22;491;53.480;10.174;2022-11-24T08:12:34;5.70;99.90
1005;DHT22;491;53.480;10.174;2022-11-24T08:15:00;5.80;99.90
1005;DHT22;491;53.480;10.174;2022-11-24T08:17:27;5.70;99.90
1005;DHT22;491;53.480;10.174;2022-11-24T08:19:53;5.70;99.90
1005;DHT22;491;53.480;10.174;2022-11-24T08:22:18;5.70;99.90
1005;DHT22;491;53.480;10.174;2022-11-24T08:24:44;5.70;99.90
1005;DHT22;491;53.480;10.174;2022-11-24T08:27:14;5.70;99.90
1005;DHT22;491;53.480;10.174;2022-11-24T08:29:39;5.70;99.90
1005;DHT22;491;53.480;10.174;2022-11-24T08:32:05;5.80;99.90
1005;DHT22;491;53.480;10.174;2022-11-24T08:34:33;5.80;99.90
1005;DHT22;491;53.480;10.174;2022-11-24T08:36:59;5.90;99.90
1005;DHT22;491;53.480;10.174;2022-11-24T08:39:24;5.90;99.90
1005;DHT22;491;53.480;10.174;2022-11-24T08:41:50;6.00;99.90
1005;DHT22;491;53.480;10.174;2022-11-24T08:44:15;5.90;99.90
1005;DHT22;491;53.480;10.174;2022-11-24T08:46:43;6.00;99.90
1005;DHT22;491;53.480;10.174;2022-11-24T08:49:08;6.00;99.90
1005;DHT22;491;53.480;10.174;2022-11-24T08:51:35;6.10;99.90
1005;DHT22;491;53.480;10.174;2022-11-24T08:54:00;6.10;99.90
1005;DHT22;491;53.480;10.174;2022-11-24T08:56:27;6.10;99.90
1005;DHT22;491;53.480;10.174;2022-11-24T08:58:54;6.10;99.90
1005;DHT22;491;53.480;10.174;2022-11-24T09:01:22;6.20;99.90
1005;DHT22;491;53.480;10.174;2022-11-24T09:03:49;6.20;99.90
1005;DHT22;491;53.480;10.174;2022-11-24T09:06:15;6.30;99.90
1005;DHT22;491;53.480;10.174;2022-11-24T09:08:41;6.30;99.90
1005;DHT22;491;53.480;10.174;2022-11-24T09:11:10;6.40;99.90
1005;DHT22;491;53.480;10.174;2022-11-24T09:13:36;6.50;99.90
1005;DHT22;491;53.480;10.174;2022-11-24T09:16:10;6.60;99.90
1005;DHT22;491;53.480;10.174;2022-11-24T09:18:36;7.00;99.90
1005;DHT22;491;53.480;10.174;2022-11-24T09:21:16;7.20;99.90
1005;DHT22;491;53.480;10.174;2022-11-24T09:23:44;7.30;99.90
1005;DHT22;491;53.480;10.174;2022-11-24T09:26:13;7.30;99.90
1005;DHT22;491;53.480;10.174;2022-11-24T09:28:41;7.30;99.90
1005;DHT22;491;53.480;10.174;2022-11-24T09:31:10;7.10;99.90
1005;DHT22;491;53.480;10.174;2022-11-24T09:33:36;7.10;99.90
1005;DHT22;491;53.480;10.174;2022-11-24T09:36:02;7.20;99.90
1005;DHT22;491;53.480;10.174;2022-11-24T09:38:28;7.30;99.90
1005;DHT22;491;53.480;10.174;2022-11-24T09:40:54;7.20;99.90
1005;DHT22;491;53.480;10.174;2022-11-24T09:43:39;7.20;99.90
1005;DHT22;491;53.480;10.174;2022-11-24T09:46:16;7.20;99.90
1005;DHT22;491;53.480;10.174;2022-11-24T09:48:49;7.20;99.90
1005;DHT22;491;53.480;10.174;2022-11-24T09:51:18;7.20;99.90
1005;DHT22;491;53.480;10.174;2022-11-24T09:54:10;7.20;99.90
1005;DHT22;491;53.480;10.174;2022-11-24T09:56:39;7.20;99.90
1005;DHT22;491;53.480;10.174;2022-11-24T09:59:19;7.20;99.90
1005;DHT22;491;53.480;10.174;2022-11-24T10:01:46;7.20;99.90
1005;DHT22;491;53.480;10.174;2022-11-24T10:07:04;7.50;99.90
1005;DHT22;491;53.480;10.174;2022-11-24T10:09:54;7.70;99.90
1005;DHT22;491;53.480;10.174;2022-11-24T10:20:35;8.00;99.90
1005;DHT22;491;53.480;10.174;2022-11-24T10:26:00;8.10;99.90
1005;DHT22;491;53.480;10.174;2022-11-24T10:28:36;8.10;99.90
1005;DHT22;491;53.480;10.174;2022-11-24T10:33:48;8.10;99.90
1005;DHT22;491;53.480;10.174;2022-11-24T10:36:20;8.00;99.90
1005;DHT22;491;53.480;10.174;2022-11-24T10:39:33;8.00;99.90
1005;DHT22;491;53.480;10.174;2022-11-24T10:42:04;8.10;99.90
1005;DHT22;491;53.480;10.174;2022-11-24T10:44:31;8.20;99.90
1005;DHT22;491;53.480;10.174;2022-11-24T10:46:56;8.20;99.90
1005;DHT22;491;53.480;10.174;2022-11-24T10:49:26;8.30;99.90
1005;DHT22;491;53.480;10.174;2022-11-24T10:52:09;8.50;99.90
1005;DHT22;491;53.480;10.174;2022-11-24T10:54:53;8.50;99.90
1005;DHT22;491;53.480;10.174;2022-11-24T10:57:33;8.70;99.90
1005;DHT22;491;53.480;10.174;2022-11-24T11:00:00;8.70;99.90
1005;DHT22;491;53.480;10.174;2022-11-24T11:02:29;8.60;99.90
1005;DHT22;491;53.480;10.174;2022-11-24T11:04:55;8.60;99.90
1005;DHT22;491;53.480;10.174;2022-11-24T11:07:23;8.50;99.90
1005;DHT22;491;53.480;10.174;2022-11-24T11:09:49;8.50;99.90
1005;DHT22;491;53.480;10.174;2022-11-24T11:12:20;8.50;99.90
1005;DHT22;491;53.480;10.174;2022-11-24T11:14:46;8.50;99.90
1005;DHT22;491;53.480;10.174;2022-11-24T11:17:32;8.50;99.90
1005;DHT22;491;53.480;10.174;2022-11-24T11:20:21;8.50;99.90
1005;DHT22;491;53.480;10.174;2022-11-24T11:22:49;8.60;99.90
1005;DHT22;491;53.480;10.174;2022-11-24T11:25:23;8.60;99.90
1005;DHT22;491;53.480;10.174;2022-11-24T11:27:50;8.70;99.90
1005;DHT22;491;53.480;10.174;2022-11-24T11:32:57;8.80;99.90
1005;DHT22;491;53.480;10.174;2022-11-24T11:35:24;8.90;99.90
1005;DHT22;491;53.480;10.174;2022-11-24T11:37:59;9.00;99.90
1005;DHT22;491;53.480;10.174;2022-11-24T11:40:29;9.00;99.90
1005;DHT22;491;53.480;10.174;2022-11-24T11:43:03;9.10;99.90
1005;DHT22;491;53.480;10.174;2022-11-24T11:45:38;9.10;99.90
1005;DHT22;491;53.480;10.174;2022-11-24T11:48:29;9.10;99.90
1005;DHT22;491;53.480;10.174;2022-11-24T11:56:31;9.20;99.90
1005;DHT22;491;53.480;10.174;2022-11-24T11:59:28;9.30;99.90
1005;DHT22;491;53.480;10.174;2022-11-24T12:04:49;9.30;99.90
1005;DHT22;491;53.480;10.174;2022-11-24T12:07:38;9.20;99.90
1005;DHT22;491;53.480;10.174;2022-11-24T12:10:34;9.10;99.90
1005;DHT22;491;53.480;10.174;2022-11-24T12:19:17;9.30;99.90
1005;DHT22;491;53.480;10.174;2022-11-24T12:22:35;9.30;99.90
1005;DHT22;491;53.480;10.174;2022-11-24T12:30:20;9.60;99.90
1005;DHT22;491;53.480;10.174;2022-11-24T12:35:45;9.80;99.90
1005;DHT22;491;53.480;10.174;2022-11-24T12:43:59;9.60;99.90
1005;DHT22;491;53.480;10.174;2022-11-24T12:46:53;9.50;99.90
1005;DHT22;491;53.480;10.174;2022-11-24T12:51:58;9.50;99.90
1005;DHT22;491;53.480;10.174;2022-11-24T12:54:37;9.50;99.90
1005;DHT22;491;53.480;10.174;2022-11-24T12:57:25;9.40;99.90
1005;DHT22;491;53.480;10.174;2022-11-24T13:00:04;9.40;99.90
1005;DHT22;491;53.480;10.174;2022-11-24T13:08:26;9.20;99.90
1005;DHT22;491;53.480;10.174;2022-11-24T13:10:52;9.20;99.90
1005;DHT22;491;53.480;10.174;2022-11-24T13:13:18;9.20;99.90
1005;DHT22;491;53.480;10.174;2022-11-24T13:18:56;9.30;99.90
1005;DHT22;491;53.480;10.174;2022-11-24T13:21:44;9.30;99.90
1005;DHT22;491;53.480;10.174;2022-11-24T13:37:16;9.40;99.90
1005;DHT22;491;53.480;10.174;2022-11-24T13:42:31;9.40;99.90
1005;DHT22;491;53.480;10.174;2022-11-24T13:45:02;9.40;99.90
1005;DHT22;491;53.480;10.174;2022-11-24T13:47:31;9.40;99.90
1005;DHT22;491;53.480;10.174;2022-11-24T13:50:20;9.40;99.90
1005;DHT22;491;53.480;10.174;2022-11-24T13:57:46;9.40;99.90
1005;DHT22;491;53.480;10.174;2022-11-24T14:00:34;9.40;99.90
1005;DHT22;491;53.480;10.174;2022-11-24T14:03:18;9.40;99.90
1005;DHT22;491;53.480;10.174;2022-11-24T14:05:50;9.40;99.90
1005;DHT22;491;53.480;10.174;2022-11-24T14:10:47;9.40;99.90
1005;DHT22;491;53.480;10.174;2022-11-24T14:13:24;9.30;99.90
1005;DHT22;491;53.480;10.174;2022-11-24T14:18:31;9.30;99.90
1005;DHT22;491;53.480;10.174;2022-11-24T14:20:59;9.30;99.90
1005;DHT22;491;53.480;10.174;2022-11-24T14:23:25;9.30;99.90
1005;DHT22;491;53.480;10.174;2022-11-24T14:25:51;9.20;99.90
1005;DHT22;491;53.480;10.174;2022-11-24T14:28:24;9.20;99.90
1005;DHT22;491;53.480;10.174;2022-11-24T14:31:08;9.20;99.90
1005;DHT22;491;53.480;10.174;2022-11-24T14:33:34;9.10;99.90
1005;DHT22;491;53.480;10.174;2022-11-24T14:36:00;9.20;99.90
1005;DHT22;491;53.480;10.174;2022-11-24T14:38:26;9.20;99.90
1005;DHT22;491;53.480;10.174;2022-11-24T14:40:53;9.10;99.90
1005;DHT22;491;53.480;10.174;2022-11-24T14:43:32;9.00;99.90
1005;DHT22;491;53.480;10.174;2022-11-24T14:46:00;8.80;99.90
1005;DHT22;491;53.480;10.174;2022-11-24T14:48:31;8.60;99.90
1005;DHT22;491;53.480;10.174;2022-11-24T14:51:23;8.50;99.90
1005;DHT22;491;53.480;10.174;2022-11-24T14:53:58;8.50;99.90
1005;DHT22;491;53.480;10.174;2022-11-24T14:56:35;8.40;99.90
1005;DHT22;491;53.480;10.174;2022-11-24T14:59:22;8.20;99.90
1005;DHT22;491;53.480;10.174;2022-11-24T15:01:47;8.00;99.90
1005;DHT22;491;53.480;10.174;2022-11-24T15:04:18;7.90;99.90
1005;DHT22;491;53.480;10.174;2022-11-24T15:12:24;7.60;99.90
1005;DHT22;491;53.480;10.174;2022-11-24T15:14:55;7.50;99.90
1005;DHT22;491;53.480;10.174;2022-11-24T15:17:25;7.40;99.90
1005;DHT22;491;53.480;10.174;2022-11-24T15:20:01;7.30;99.90
1005;DHT22;491;53.480;10.174;2022-11-24T15:22:34;7.20;99.90
1005;DHT22;491;53.480;10.174;2022-11-24T15:25:00;7.10;99.90
1005;DHT22;491;53.480;10.174;2022-11-24T15:27:26;7.00;99.90
1005;DHT22;491;53.480;10.174;2022-11-24T15:29:52;6.90;99.90
1005;DHT22;491;53.480;10.174;2022-11-24T15:32:18;6.80;99.90
1005;DHT22;491;53.480;10.174;2022-11-24T15:34:48;6.80;99.90
1005;DHT22;491;53.480;10.174;2022-11-24T15:37:15;6.80;99.90
1005;DHT22;491;53.480;10.174;2022-11-24T15:39:41;6.80;99.90
1005;DHT22;491;53.480;10.174;2022-11-24T15:42:08;6.70;99.90
1005;DHT22;491;53.480;10.174;2022-11-24T15:44:35;6.60;99.90
1005;DHT22;491;53.480;10.174;2022-11-24T15:47:01;6.70;99.90
1005;DHT22;491;53.480;10.174;2022-11-24T15:49:26;6.60;99.90
1005;DHT22;491;53.480;10.174;2022-11-24T15:51:52;6.50;99.90
1005;DHT22;491;53.480;10.174;2022-11-24T15:54:23;6.50;99.90
1005;DHT22;491;53.480;10.174;2022-11-24T15:56:50;6.70;99.90
1005;DHT22;491;53.480;10.174;2022-11-24T15:59:16;6.80;99.90
1005;DHT22;491;53.480;10.174;2022-11-24T16:01:41;6.80;99.90
1005;DHT22;491;53.480;10.174;2022-11-24T16:04:08;6.80;99.90
1005;DHT22;491;53.480;10.174;2022-11-24T16:06:33;6.80;99.90
1005;DHT22;491;53.480;10.174;2022-11-24T16:09:00;6.90;99.90
1005;DHT22;491;53.480;10.174;2022-11-24T16:11:26;6.90;99.90
1005;DHT22;491;53.480;10.174;2022-11-24T16:13:51;6.90;99.90
1005;DHT22;491;53.480;10.174;2022-11-24T16:16:17;6.90;99.90
1005;DHT22;491;53.480;10.174;2022-11-24T16:18:43;6.90;99.90
1005;DHT22;491;53.480;10.174;2022-11-24T16:21:10;6.90;99.90
1005;DHT22;491;53.480;10.174;2022-11-24T16:23:35;6.90;99.90
1005;DHT22;491;53.480;10.174;2022-11-24T16:26:03;6.90;99.90
1005;DHT22;491;53.480;10.174;2022-11-24T16:28:29;6.80;99.90
1005;DHT22;491;53.480;10.174;2022-11-24T16:30:54;6.80;99.90
1005;DHT22;491;53.480;10.174;2022-11-24T16:33:20;6.70;99.90
1005;DHT22;491;53.480;10.174;2022-11-24T16:35:46;6.50;99.90
1005;DHT22;491;53.480;10.174;2022-11-24T16:38:16;6.40;99.90
1005;DHT22;491;53.480;10.174;2022-11-24T16:40:42;6.50;99.90
1005;DHT22;491;53.480;10.174;2022-11-24T16:43:08;6.20;99.90
1005;DHT22;491;53.480;10.174;2022-11-24T16:45:34;6.10;99.90
1005;DHT22;491;53.480;10.174;2022-11-24T16:48:00;6.20;99.90
1005;DHT22;491;53.480;10.174;2022-11-24T16:50:25;6.60;99.90
1005;DHT22;491;53.480;10.174;2022-11-24T16:52:51;6.60;99.90
1005;DHT22;491;53.480;10.174;2022-11-24T16:55:16;6.50;99.90
1005;DHT22;491;53.480;10.174;2022-11-24T16:57:42;6.30;99.90
1005;DHT22;491;53.480;10.174;2022-11-24T17:00:08;6.00;99.90
1005;DHT22;491;53.480;10.174;2022-11-24T17:02:34;6.10;99.90
1005;DHT22;491;53.480;10.174;2022-11-24T17:05:00;6.10;99.90
1005;DHT22;491;53.480;10.174;2022-11-24T17:07:25;5.90;99.90
1005;DHT22;491;53.480;10.174;2022-11-24T17:09:51;6.10;99.90
1005;DHT22;491;53.480;10.174;2022-11-24T17:12:16;6.00;99.90
1005;DHT22;491;53.480;10.174;2022-11-24T17:14:42;6.10;99.90
1005;DHT22;491;53.480;10.174;2022-11-24T17:17:07;6.20;99.90
1005;DHT22;491;53.480;10.174;2022-11-24T17:19:33;5.90;99.90
1005;DHT22;491;53.480;10.174;2022-11-24T17:21:58;5.80;99.90
1005;DHT22;491;53.480;10.174;2022-11-24T17:24:24;6.00;99.90
1005;DHT22;491;53.480;10.174;2022-11-24T17:26:50;6.10;99.90
1005;DHT22;491;53.480;10.174;2022-11-24T17:29:17;6.10;99.90
1005;DHT22;491;53.480;10.174;2022-11-24T17:31:42;6.00;99.90
1005;DHT22;491;53.480;10.174;2022-11-24T17:34:10;6.10;99.90
1005;DHT22;491;53.480;10.174;2022-11-24T17:36:36;5.90;99.90
1005;DHT22;491;53.480;10.174;2022-11-24T17:39:04;5.80;99.90
1005;DHT22;491;53.480;10.174;2022-11-24T17:41:31;5.80;99.90
1005;DHT22;491;53.480;10.174;2022-11-24T17:43:57;5.60;99.90
1005;DHT22;491;53.480;10.174;2022-11-24T17:46:24;5.20;99.90
1005;DHT22;491;53.480;10.174;2022-11-24T17:48:50;5.10;99.90
1005;DHT22;491;53.480;10.174;2022-11-24T17:51:18;5.00;99.90
1005;DHT22;491;53.480;10.174;2022-11-24T17:53:44;4.90;99.90
1005;DHT22;491;53.480;10.174;2022-11-24T17:56:24;4.80;99.90
1005;DHT22;491;53.480;10.174;2022-11-24T17:58:58;4.80;99.90
1005;DHT22;491;53.480;10.174;2022-11-24T18:01:24;4.60;99.90
1005;DHT22;491;53.480;10.174;2022-11-24T18:03:55;4.60;99.90
1005;DHT22;491;53.480;10.174;2022-11-24T18:06:21;4.50;99.90